createdAt,value
2023-12-03T00:01:15.090Z,103.20
2023-12-03T00:04:01.737Z,99.00
2023-12-03T00:06:31.871Z,62.20
2023-12-03T00:09:03.417Z,53.70
2023-12-03T00:11:32.561Z,43.90
2023-12-03T00:14:02.528Z,47.20
2023-12-03T00:16:35.126Z,37.50
2023-12-03T00:19:06.765Z,47.70
2023-12-03T00:21:39.498Z,36.70
2023-12-03T00:24:09.698Z,36.90
2023-12-03T00:26:40.108Z,35.90
2023-12-03T00:29:15.297Z,36.90
2023-12-03T00:31:46.259Z,39.30
2023-12-03T00:34:20.201Z,33.70
2023-12-03T00:36:49.532Z,37.70
2023-12-03T00:39:18.519Z,45.00
2023-12-03T00:41:50.281Z,38.80
2023-12-03T00:44:20.231Z,34.20
2023-12-03T00:46:50.447Z,45.30
2023-12-03T00:49:23.040Z,41.40
2023-12-03T00:51:53.222Z,45.50
2023-12-03T00:54:22.944Z,41.30
2023-12-03T00:56:55.055Z,37.60
2023-12-03T00:59:26.135Z,32.10
2023-12-03T01:01:56.177Z,32.20
2023-12-03T01:04:27.956Z,32.60
2023-12-03T01:06:58.069Z,35.20
2023-12-03T01:09:34.993Z,32.80
2023-12-03T01:12:05.555Z,42.80
2023-12-03T01:14:34.639Z,40.50
2023-12-03T01:17:05.029Z,43.80
2023-12-03T01:19:34.069Z,39.90
2023-12-03T01:22:05.522Z,35.50
2023-12-03T01:24:35.824Z,33.30
2023-12-03T01:27:06.951Z,39.20
2023-12-03T01:29:38.250Z,34.20
2023-12-03T01:32:11.128Z,32.20
2023-12-03T01:34:41.729Z,36.50
2023-12-03T01:37:14.825Z,40.90
2023-12-03T01:39:44.242Z,47.40
2023-12-03T01:42:19.943Z,43.90
2023-12-03T01:44:53.221Z,47.80
2023-12-03T01:47:23.728Z,43.30
2023-12-03T01:49:56.649Z,44.90
2023-12-03T01:52:27.835Z,44.40
2023-12-03T01:55:01.136Z,44.50
2023-12-03T01:57:33.923Z,46.40
2023-12-03T02:00:06.064Z,48.10
2023-12-03T02:02:43.193Z,41.20
2023-12-03T02:05:15.124Z,42.10
2023-12-03T02:07:46.649Z,43.90
2023-12-03T02:10:21.238Z,49.10
2023-12-03T02:12:50.455Z,52.90
2023-12-03T02:15:19.377Z,49.20
2023-12-03T02:17:53.374Z,46.60
2023-12-03T02:20:27.202Z,50.60
2023-12-03T02:23:01.250Z,50.10
2023-12-03T02:25:32.629Z,45.80
2023-12-03T02:28:03.253Z,45.40
2023-12-03T02:30:33.230Z,44.60
2023-12-03T02:33:04.484Z,57.20
2023-12-03T02:35:35.906Z,56.50
2023-12-03T02:38:07.056Z,62.40
2023-12-03T02:40:39.280Z,86.40
2023-12-03T02:43:09.769Z,115.30
2023-12-03T02:45:39.184Z,98.00
2023-12-03T02:48:12.590Z,80.20
2023-12-03T02:50:41.749Z,96.20
2023-12-03T02:53:12.904Z,86.20
2023-12-03T02:55:44.228Z,89.70
2023-12-03T02:58:14.447Z,76.00
2023-12-03T03:00:46.230Z,58.30
2023-12-03T03:03:19.277Z,76.60
2023-12-03T03:05:50.209Z,79.50
2023-12-03T03:08:21.087Z,66.70
2023-12-03T03:10:51.746Z,67.40
2023-12-03T03:13:22.282Z,46.10
2023-12-03T03:15:53.272Z,41.50
2023-12-03T03:18:23.765Z,40.10
2023-12-03T03:20:57.639Z,39.60
2023-12-03T03:23:29.504Z,42.40
2023-12-03T03:26:00.135Z,37.70
2023-12-03T03:28:29.809Z,40.30
2023-12-03T03:31:02.379Z,36.00
2023-12-03T03:33:33.158Z,37.80
2023-12-03T03:36:03.051Z,39.60
2023-12-03T03:38:34.489Z,36.50
2023-12-03T03:41:03.940Z,41.90
2023-12-03T03:43:34.618Z,44.10
2023-12-03T03:46:04.579Z,47.20
2023-12-03T03:48:39.757Z,54.40
2023-12-03T03:51:10.196Z,43.00
2023-12-03T03:53:39.412Z,53.20
2023-12-03T03:56:10.799Z,48.80
2023-12-03T03:58:40.150Z,45.60
2023-12-03T04:01:12.705Z,51.70
2023-12-03T04:03:45.203Z,48.50
2023-12-03T04:06:14.355Z,54.40
2023-12-03T04:08:47.805Z,54.50
2023-12-03T04:11:20.121Z,56.40
2023-12-03T04:13:51.217Z,50.30
2023-12-03T04:16:24.273Z,54.20
2023-12-03T04:21:28.882Z,54.00
2023-12-03T04:23:58.940Z,52.20
2023-12-03T04:26:29.165Z,50.10
2023-12-03T04:28:58.555Z,48.20
2023-12-03T04:31:29.225Z,61.20
2023-12-03T04:34:00.109Z,63.10
2023-12-03T04:36:32.002Z,61.30
2023-12-03T04:39:02.660Z,59.50
2023-12-03T04:41:36.747Z,64.00
2023-12-03T04:44:07.520Z,63.10
2023-12-03T04:46:41.520Z,64.80
2023-12-03T04:49:12.174Z,62.30
2023-12-03T04:51:41.720Z,74.20
2023-12-03T04:54:11.855Z,69.90
2023-12-03T04:56:42.955Z,71.80
2023-12-03T04:59:13.513Z,74.00
2023-12-03T05:01:43.739Z,78.80
2023-12-03T05:04:17.716Z,79.40
2023-12-03T05:06:54.384Z,79.90
2023-12-03T05:09:52.325Z,80.20
2023-12-03T05:12:23.899Z,95.90
2023-12-03T05:14:54.920Z,75.40
2023-12-03T05:17:27.319Z,82.00
2023-12-03T05:19:58.018Z,79.70
2023-12-03T05:22:30.138Z,77.70
2023-12-03T05:24:59.558Z,82.80
2023-12-03T05:27:29.233Z,74.40
2023-12-03T05:30:00.683Z,93.60
2023-12-03T05:32:31.380Z,84.70
2023-12-03T05:35:02.209Z,96.00
2023-12-03T05:37:35.666Z,94.60
2023-12-03T05:40:06.190Z,91.90
2023-12-03T05:42:36.609Z,92.00
2023-12-03T05:45:06.435Z,98.50
2023-12-03T05:47:36.822Z,100.80
2023-12-03T05:50:08.346Z,97.30
2023-12-03T05:52:40.020Z,90.80
2023-12-03T05:55:09.792Z,96.80
2023-12-03T05:57:40.616Z,88.10
2023-12-03T06:00:10.648Z,103.40
2023-12-03T06:02:41.285Z,87.50
2023-12-03T06:05:11.519Z,82.50
2023-12-03T06:07:41.800Z,85.00
2023-12-03T06:10:12.125Z,88.10
2023-12-03T06:12:43.218Z,87.30
2023-12-03T06:15:13.737Z,92.30
2023-12-03T06:17:43.696Z,82.20
2023-12-03T06:20:13.431Z,110.90
2023-12-03T06:22:42.703Z,114.50
2023-12-03T06:25:12.091Z,115.80
2023-12-03T06:27:41.770Z,103.80
2023-12-03T06:30:11.633Z,94.70
2023-12-03T06:32:41.723Z,92.10
2023-12-03T06:35:12.936Z,84.60
2023-12-03T06:37:43.449Z,83.50
2023-12-03T06:40:13.924Z,75.10
2023-12-03T06:42:43.149Z,89.40
2023-12-03T06:45:15.089Z,91.10
2023-12-03T06:47:44.333Z,87.10
2023-12-03T06:50:15.459Z,88.50
2023-12-03T06:52:47.989Z,89.40
2023-12-03T06:55:17.691Z,76.50
2023-12-03T06:57:47.027Z,76.70
2023-12-03T07:00:17.158Z,80.60
2023-12-03T07:02:49.101Z,69.10
2023-12-03T07:05:19.036Z,77.10
2023-12-03T07:07:52.963Z,84.70
2023-12-03T07:10:48.745Z,81.70
2023-12-03T07:13:18.621Z,68.20
2023-12-03T07:15:52.470Z,66.80
2023-12-03T07:18:23.565Z,70.30
2023-12-03T07:20:55.515Z,59.90
2023-12-03T07:23:26.558Z,68.70
2023-12-03T07:25:56.472Z,67.30
2023-12-03T07:28:28.960Z,60.70
2023-12-03T07:30:58.769Z,67.60
2023-12-03T07:33:29.570Z,72.10
2023-12-03T07:36:00.774Z,80.20
2023-12-03T07:38:34.901Z,76.30
2023-12-03T07:41:10.032Z,75.70
2023-12-03T07:43:42.007Z,70.80
2023-12-03T07:46:23.879Z,67.40
2023-12-03T07:48:54.467Z,69.00
2023-12-03T07:51:28.157Z,70.30
2023-12-03T07:54:00.138Z,76.30
2023-12-03T07:56:41.421Z,77.00
2023-12-03T07:59:13.480Z,72.00
2023-12-03T08:01:44.014Z,70.10
2023-12-03T08:04:19.042Z,65.70
2023-12-03T08:07:02.472Z,65.30
2023-12-03T08:09:33.746Z,64.10
2023-12-03T08:12:11.728Z,57.60
2023-12-03T08:14:51.231Z,65.00
2023-12-03T08:17:22.977Z,61.30
2023-12-03T08:19:52.791Z,91.50
2023-12-03T08:22:36.300Z,48.30
2023-12-03T08:25:12.058Z,43.60
2023-12-03T08:27:45.768Z,29.20
2023-12-03T08:30:16.557Z,22.60
2023-12-03T08:32:54.305Z,21.80
2023-12-03T09:32:51.542Z,5.90
2023-12-03T09:35:55.535Z,7.10
2023-12-03T09:38:31.657Z,8.00
2023-12-03T09:45:26.356Z,6.80
2023-12-03T09:48:13.722Z,7.00
2023-12-03T09:50:46.598Z,5.90
2023-12-03T09:53:19.004Z,6.70
2023-12-03T09:55:58.372Z,6.60
2023-12-03T09:58:29.798Z,23.80
2023-12-03T10:01:06.380Z,8.30
2023-12-03T10:03:37.431Z,5.60
2023-12-03T10:06:09.509Z,7.90
2023-12-03T10:08:45.737Z,9.30
2023-12-03T10:15:44.321Z,12.30
2023-12-03T10:18:21.075Z,14.50
2023-12-03T10:21:19.983Z,16.80
2023-12-03T10:24:08.376Z,13.10
2023-12-03T10:26:40.148Z,11.20
2023-12-03T10:29:11.003Z,10.10
2023-12-03T10:31:42.054Z,9.80
2023-12-03T10:34:15.065Z,7.90
2023-12-03T10:36:46.629Z,7.00
2023-12-03T10:39:21.111Z,8.40
2023-12-03T10:41:53.731Z,9.10
2023-12-03T10:44:27.882Z,13.30
2023-12-03T10:47:04.989Z,13.60
2023-12-03T10:49:38.486Z,12.20
2023-12-03T10:52:09.329Z,11.90
2023-12-03T10:54:40.106Z,12.80
2023-12-03T10:57:11.013Z,27.20
2023-12-03T10:59:44.764Z,18.20
2023-12-03T11:02:18.189Z,18.80
2023-12-03T11:05:17.845Z,16.40
2023-12-03T11:07:48.525Z,16.70
2023-12-03T11:10:21.154Z,19.80
2023-12-03T11:12:51.187Z,14.60
2023-12-03T11:15:24.346Z,14.10
2023-12-03T11:17:53.857Z,14.00
2023-12-03T11:20:29.215Z,14.20
2023-12-03T11:23:40.200Z,15.30
2023-12-03T11:26:15.676Z,11.00
2023-12-03T11:28:57.477Z,12.40
2023-12-03T11:31:30.163Z,14.60
2023-12-03T11:34:02.450Z,12.00
2023-12-03T11:39:09.802Z,12.80
2023-12-03T11:41:44.681Z,14.40
2023-12-03T11:44:23.088Z,15.80
2023-12-03T11:47:11.211Z,14.40
2023-12-03T11:49:44.587Z,13.40
2023-12-03T11:52:15.813Z,13.10
2023-12-03T11:55:09.792Z,14.50
2023-12-03T11:57:40.675Z,17.80
2023-12-03T12:00:14.159Z,16.80
2023-12-03T12:02:44.774Z,18.40
2023-12-03T12:05:15.726Z,17.70
2023-12-03T12:08:02.923Z,17.80
2023-12-03T12:10:36.611Z,14.20
2023-12-03T12:13:08.156Z,16.20
2023-12-03T12:15:38.783Z,15.80
2023-12-03T12:18:12.958Z,17.80
2023-12-03T12:20:44.552Z,16.70
2023-12-03T12:23:14.695Z,13.10
2023-12-03T12:25:48.654Z,17.60
2023-12-03T12:28:20.456Z,15.10
2023-12-03T12:30:51.362Z,13.90
2023-12-03T12:33:21.610Z,14.20
2023-12-03T12:35:53.678Z,13.90
2023-12-03T12:38:24.694Z,11.30
2023-12-03T12:40:58.005Z,16.40
2023-12-03T12:43:29.005Z,17.70
2023-12-03T12:46:10.781Z,14.90
2023-12-03T12:48:43.688Z,14.20
2023-12-03T12:51:26.020Z,14.90
2023-12-03T12:54:03.187Z,16.60
2023-12-03T12:56:34.589Z,15.10
2023-12-03T12:59:05.509Z,14.40
2023-12-03T13:01:37.475Z,17.30
2023-12-03T13:04:10.448Z,14.10
2023-12-03T13:06:41.092Z,17.30
2023-12-03T13:09:16.657Z,15.10
2023-12-03T13:11:50.904Z,13.30
2023-12-03T13:14:22.312Z,16.70
2023-12-03T13:16:55.593Z,16.00
2023-12-03T13:19:26.699Z,15.40
2023-12-03T13:22:00.756Z,18.90
2023-12-03T13:24:34.104Z,18.90
2023-12-03T13:27:04.810Z,18.00
2023-12-03T13:29:37.885Z,20.00
2023-12-03T13:32:07.709Z,17.60
2023-12-03T13:34:39.888Z,13.00
2023-12-03T13:39:44.627Z,12.30
2023-12-03T13:42:15.827Z,13.50
2023-12-03T13:44:44.978Z,12.10
2023-12-03T13:48:04.989Z,12.40
2023-12-03T13:50:41.895Z,11.20
2023-12-03T13:53:13.638Z,14.30
2023-12-03T13:55:46.353Z,12.50
2023-12-03T13:58:42.085Z,11.90
2023-12-03T14:01:15.010Z,11.60
2023-12-03T14:03:46.382Z,13.70
2023-12-03T14:06:17.580Z,14.10
2023-12-03T14:08:48.901Z,15.40
2023-12-03T14:11:47.060Z,15.60
2023-12-03T14:14:22.950Z,15.00
2023-12-03T14:16:59.658Z,12.70
2023-12-03T14:19:31.266Z,15.10
2023-12-03T14:22:01.048Z,14.30
2023-12-03T14:24:31.808Z,11.00
2023-12-03T14:27:01.493Z,13.60
2023-12-03T14:29:30.723Z,13.60
2023-12-03T14:32:00.161Z,14.60
2023-12-03T14:34:30.588Z,15.80
2023-12-03T14:37:01.587Z,13.30
2023-12-03T14:39:32.574Z,14.10
2023-12-03T14:42:05.152Z,12.20
2023-12-03T14:44:36.134Z,16.40
2023-12-03T14:47:08.638Z,13.40
2023-12-03T14:49:39.332Z,14.80
2023-12-03T14:52:10.350Z,13.70
2023-12-03T14:54:42.432Z,8.10
2023-12-03T14:57:11.570Z,14.30
2023-12-03T14:59:40.920Z,15.70
2023-12-03T15:02:15.524Z,13.30
2023-12-03T15:07:18.199Z,12.50
2023-12-03T15:10:18.201Z,15.80
2023-12-03T15:12:47.969Z,16.10
2023-12-03T15:15:20.954Z,13.90
2023-12-03T15:17:51.797Z,13.20
2023-12-03T15:20:24.538Z,17.30
2023-12-03T15:22:54.792Z,15.40
2023-12-03T15:25:24.840Z,19.20
2023-12-03T15:27:53.922Z,12.30
2023-12-03T15:30:25.852Z,15.80
2023-12-03T15:32:58.095Z,21.90
2023-12-03T15:35:27.292Z,19.10
2023-12-03T15:37:56.879Z,16.30
2023-12-03T15:40:27.133Z,16.20
2023-12-03T15:42:56.951Z,14.40
2023-12-03T15:45:27.114Z,21.50
2023-12-03T15:48:01.099Z,17.20
2023-12-03T15:50:31.237Z,19.40
2023-12-03T15:53:04.293Z,16.10
2023-12-03T15:55:34.505Z,20.30
2023-12-03T15:58:07.620Z,17.80
2023-12-03T16:00:48.881Z,20.00
2023-12-03T16:03:27.806Z,18.70
2023-12-03T16:05:59.612Z,18.00
2023-12-03T16:08:41.182Z,20.90
2023-12-03T16:11:18.762Z,20.70
2023-12-03T16:13:49.962Z,17.30
2023-12-03T16:16:20.359Z,17.10
2023-12-03T16:18:53.928Z,17.90
2023-12-03T16:21:24.198Z,17.40
2023-12-03T16:23:56.586Z,21.10
2023-12-03T16:26:25.810Z,20.80
2023-12-03T16:28:55.945Z,20.30
2023-12-03T16:31:32.017Z,17.20
2023-12-03T16:34:04.206Z,17.80
2023-12-03T16:36:36.899Z,20.20
2023-12-03T16:39:10.824Z,20.10
2023-12-03T16:41:40.773Z,18.40
2023-12-03T16:44:17.342Z,15.60
2023-12-03T16:47:02.819Z,16.90
2023-12-03T16:49:32.535Z,18.50
2023-12-03T16:52:13.596Z,17.70
2023-12-03T16:54:45.806Z,20.00
2023-12-03T16:57:31.355Z,21.60
2023-12-03T17:00:03.465Z,17.60
2023-12-03T17:02:35.274Z,18.10
2023-12-03T17:05:09.567Z,19.60
2023-12-03T17:07:45.270Z,17.90
2023-12-03T17:13:14.103Z,25.50
2023-12-03T17:15:46.147Z,24.00
2023-12-03T17:18:18.523Z,21.40
2023-12-03T17:20:54.435Z,17.40
2023-12-03T17:23:24.496Z,21.00
2023-12-03T17:25:56.651Z,20.40
2023-12-03T17:28:30.421Z,22.50
2023-12-03T17:31:02.893Z,18.80
2023-12-03T17:33:34.988Z,21.50
2023-12-03T17:36:08.675Z,18.30
2023-12-03T17:38:40.532Z,25.40
2023-12-03T17:41:12.358Z,24.00
2023-12-03T17:44:04.416Z,21.50
2023-12-03T17:46:38.513Z,20.10
2023-12-03T17:49:10.195Z,20.10
2023-12-03T17:51:51.230Z,22.90
2023-12-03T17:54:26.919Z,16.30
2023-12-03T17:56:58.886Z,25.00
2023-12-03T17:59:30.807Z,16.50
2023-12-03T18:02:05.427Z,20.00
2023-12-03T18:04:42.696Z,21.00
2023-12-03T18:07:23.204Z,16.50
2023-12-03T18:09:56.834Z,20.70
2023-12-03T18:12:30.242Z,20.10
2023-12-03T18:15:04.464Z,21.30
2023-12-03T18:17:39.702Z,19.40
2023-12-03T18:20:12.498Z,18.20
2023-12-03T18:22:48.065Z,19.40
2023-12-03T18:25:23.828Z,22.00
2023-12-03T18:27:56.987Z,21.00
2023-12-03T18:30:39.423Z,23.20
2023-12-03T18:33:19.069Z,21.20
2023-12-03T18:35:52.679Z,18.30
2023-12-03T18:38:26.817Z,20.20
2023-12-03T18:41:01.448Z,21.70
2023-12-03T18:43:33.233Z,23.50
2023-12-03T18:46:08.707Z,18.10
2023-12-03T18:48:44.349Z,22.20
2023-12-03T18:51:16.081Z,20.70
2023-12-03T18:53:50.841Z,20.60
2023-12-03T18:56:29.186Z,22.00
2023-12-03T18:59:02.689Z,19.30
2023-12-03T19:01:35.552Z,19.10
2023-12-03T19:04:10.826Z,21.20
2023-12-03T19:06:49.483Z,21.10
2023-12-03T19:09:37.606Z,19.10
2023-12-03T19:12:18.065Z,24.80
2023-12-03T19:14:56.599Z,22.50
2023-12-03T19:17:32.960Z,22.20
2023-12-03T19:20:05.634Z,18.50
2023-12-03T19:22:37.218Z,19.40
2023-12-03T19:25:08.571Z,24.20
2023-12-03T19:27:39.696Z,21.60
2023-12-03T19:30:11.902Z,20.50
2023-12-03T19:32:42.379Z,22.20
2023-12-03T19:35:13.627Z,21.40
2023-12-03T19:37:45.456Z,19.80
2023-12-03T19:40:23.173Z,23.00
2023-12-03T19:42:57.389Z,18.00
2023-12-03T19:45:29.967Z,24.40
2023-12-03T19:48:10.247Z,27.20
2023-12-03T19:50:45.020Z,25.10
2023-12-03T19:53:17.607Z,34.50
2023-12-03T19:55:52.121Z,31.00
2023-12-03T19:58:23.167Z,23.40
2023-12-03T20:00:56.768Z,25.40
2023-12-03T20:03:29.922Z,25.40
2023-12-03T20:06:01.507Z,25.80
2023-12-03T20:08:33.082Z,25.40
2023-12-03T20:11:28.652Z,23.30
2023-12-03T20:13:59.488Z,24.50
2023-12-03T20:16:31.755Z,33.30
2023-12-03T20:19:02.191Z,25.10
2023-12-03T20:21:34.092Z,24.70
2023-12-03T20:24:09.610Z,25.40
2023-12-03T20:26:42.334Z,25.00
2023-12-03T20:29:14.184Z,35.10
2023-12-03T20:31:46.156Z,19.40
2023-12-03T20:34:17.674Z,21.40
2023-12-03T20:36:52.652Z,20.30
2023-12-03T20:39:23.660Z,20.50
2023-12-03T20:41:56.742Z,24.70
2023-12-03T20:44:28.220Z,27.30
2023-12-03T20:47:01.476Z,30.50
2023-12-03T20:49:33.682Z,22.20
2023-12-03T20:52:06.346Z,20.10
2023-12-03T20:54:40.529Z,18.30
2023-12-03T20:57:12.859Z,19.40
2023-12-03T20:59:45.716Z,18.40
2023-12-03T21:02:17.961Z,25.00
2023-12-03T21:04:49.910Z,14.90
2023-12-03T21:07:21.142Z,17.60
2023-12-03T21:09:59.209Z,17.20
2023-12-03T21:12:29.956Z,18.50
2023-12-03T21:15:01.501Z,15.70
2023-12-03T21:17:32.112Z,13.60
2023-12-03T21:20:04.457Z,13.40
2023-12-03T21:22:35.275Z,16.90
2023-12-03T21:25:06.835Z,12.50
2023-12-03T21:27:38.243Z,15.80
2023-12-03T21:30:11.026Z,15.90
2023-12-03T21:32:43.578Z,15.50
2023-12-03T21:35:14.039Z,11.10
2023-12-03T21:37:47.531Z,13.10
2023-12-03T21:40:18.631Z,12.10
2023-12-03T21:42:51.529Z,10.30
2023-12-03T21:45:23.707Z,12.50
2023-12-03T21:47:53.876Z,10.50
2023-12-03T21:50:24.460Z,9.70
2023-12-03T21:52:55.999Z,13.40
2023-12-03T21:55:26.954Z,16.00
2023-12-03T21:57:56.897Z,15.20
2023-12-03T22:00:28.333Z,13.00
2023-12-03T22:02:58.170Z,13.10
2023-12-03T22:05:31.145Z,19.80
2023-12-03T22:08:03.838Z,20.40
2023-12-03T22:10:36.512Z,24.40
2023-12-03T22:13:07.616Z,28.90
2023-12-03T22:15:38.747Z,27.10
2023-12-03T22:18:09.265Z,22.70
2023-12-03T22:20:39.358Z,23.10
2023-12-03T22:23:08.773Z,29.70
2023-12-03T22:25:40.602Z,18.40
2023-12-03T22:28:12.140Z,16.10
2023-12-03T22:30:42.953Z,18.30
2023-12-03T22:33:15.002Z,15.10
2023-12-03T22:35:44.360Z,28.30
2023-12-03T22:38:15.420Z,21.40
2023-12-03T22:40:45.998Z,10.70
2023-12-03T22:43:17.658Z,12.30
2023-12-03T22:45:48.114Z,12.80
2023-12-03T22:48:19.439Z,19.10
2023-12-03T22:50:50.339Z,15.30
2023-12-03T22:53:20.983Z,13.20
2023-12-03T22:55:51.781Z,14.00
2023-12-03T22:58:22.168Z,13.50
2023-12-03T23:00:51.349Z,14.40
2023-12-03T23:03:23.402Z,13.60
2023-12-03T23:05:53.441Z,15.60
2023-12-03T23:08:25.821Z,15.00
2023-12-03T23:11:00.520Z,10.50
2023-12-03T23:13:30.361Z,9.50
2023-12-03T23:16:03.336Z,11.30
2023-12-03T23:18:34.876Z,11.40
2023-12-03T23:21:07.171Z,14.50
2023-12-03T23:23:37.312Z,9.90
2023-12-03T23:26:09.899Z,16.10
2023-12-03T23:28:41.189Z,8.10
2023-12-03T23:31:12.044Z,9.70
2023-12-03T23:33:42.322Z,8.70
2023-12-03T23:36:13.911Z,11.40
2023-12-03T23:38:45.059Z,7.90
2023-12-03T23:41:15.788Z,6.90
2023-12-03T23:43:45.157Z,6.80
2023-12-03T23:46:17.595Z,8.70
2023-12-03T23:48:48.908Z,7.20
2023-12-03T23:51:20.741Z,9.10
2023-12-03T23:53:54.620Z,11.30
2023-12-03T23:56:28.052Z,10.80
2023-12-03T23:58:59.720Z,8.00
